Time;durP1;ratioP1;P1;durP2;ratioP2;P2;SDS_P1;SDS_P2;PMS_P1;PMS_P2;Temp;Humidity;BMP_temperature;BMP_pressure;BME280_temperature;BME280_humidity;BME280_pressure;Samples;Min_cycle;Max_cycle;Signal;HPM_P1;HPM_P2
2021/05/01 00:00:34;;;;;;;5.85;4.53;;;11.10;99.90;;;;;;5037939;28;20043;-75
2021/05/01 00:02:59;;;;;;;5.00;4.60;;;11.00;99.90;;;;;;5036688;28;20041;-75
2021/05/01 00:05:25;;;;;;;5.78;5.18;;;11.00;99.90;;;;;;5037666;28;20088;-76
2021/05/01 00:07:51;;;;;;;10.75;9.95;;;11.00;99.90;;;;;;5038029;28;20488;-76
2021/05/01 00:10:17;;;;;;;7.50;6.80;;;11.00;99.90;;;;;;5038217;28;20048;-75
2021/05/01 00:12:43;;;;;;;6.80;5.03;;;10.90;99.90;;;;;;5037832;28;20389;-76
2021/05/01 00:15:11;;;;;;;7.05;5.18;;;11.00;99.90;;;;;;5036210;28;20132;-75
2021/05/01 00:17:37;;;;;;;5.85;5.35;;;11.00;99.90;;;;;;5038159;28;20045;-76
2021/05/01 00:20:04;;;;;;;6.00;5.20;;;10.90;99.90;;;;;;5037991;28;20047;-76
2021/05/01 00:22:30;;;;;;;9.20;5.15;;;10.90;99.90;;;;;;5037856;28;20044;-75
2021/05/01 00:24:56;;;;;;;7.55;6.80;;;10.90;99.90;;;;;;5037803;28;20049;-75
2021/05/01 00:27:22;;;;;;;6.80;6.20;;;10.90;99.90;;;;;;5037854;28;20053;-75
2021/05/01 00:29:47;;;;;;;6.25;5.72;;;11.00;99.90;;;;;;5036120;28;20037;-75
2021/05/01 00:32:13;;;;;;;5.57;5.07;;;11.00;99.90;;;;;;5037524;28;20037;-75
2021/05/01 00:34:39;;;;;;;6.78;5.82;;;11.00;99.90;;;;;;5037363;28;20053;-75
2021/05/01 00:37:05;;;;;;;7.15;5.53;;;11.00;99.90;;;;;;5037360;28;20041;-75
2021/05/01 00:39:31;;;;;;;6.50;5.90;;;10.90;99.90;;;;;;5037882;28;20040;-75
2021/05/01 00:41:56;;;;;;;6.55;5.80;;;10.90;99.90;;;;;;5037299;28;20038;-75
2021/05/01 00:44:22;;;;;;;6.85;5.65;;;10.90;99.90;;;;;;5036600;28;20073;-75
2021/05/01 00:46:48;;;;;;;8.43;6.07;;;11.00;99.90;;;;;;5037321;28;20037;-75
2021/05/01 00:49:14;;;;;;;7.00;6.25;;;11.00;99.90;;;;;;5038017;28;20072;-76
2021/05/01 00:51:40;;;;;;;6.03;5.50;;;10.90;99.90;;;;;;5037430;28;20029;-75
2021/05/01 00:54:06;;;;;;;5.78;5.25;;;10.80;99.90;;;;;;5036045;28;20093;-75
2021/05/01 00:56:32;;;;;;;6.38;4.85;;;10.90;99.90;;;;;;5037687;28;20057;-75
2021/05/01 00:58:58;;;;;;;7.20;5.32;;;10.90;99.90;;;;;;5036873;28;20091;-75
2021/05/01 01:01:25;;;;;;;6.28;5.68;;;10.80;99.90;;;;;;5037458;28;20041;-75
2021/05/01 01:03:51;;;;;;;6.20;5.60;;;10.80;99.90;;;;;;5036225;28;20044;-75
2021/05/01 01:06:18;;;;;;;6.10;5.50;;;10.70;99.90;;;;;;5036850;28;20037;-75
2021/05/01 01:08:45;;;;;;;6.25;5.05;;;10.80;99.90;;;;;;5037137;28;20048;-75
2021/05/01 01:11:12;;;;;;;6.82;5.82;;;10.70;99.90;;;;;;5037042;28;20048;-75
2021/05/01 01:13:38;;;;;;;7.80;5.95;;;10.70;99.90;;;;;;5036339;28;20037;-76
2021/05/01 01:16:04;;;;;;;6.60;6.00;;;10.70;99.90;;;;;;5035952;28;20057;-75
2021/05/01 01:18:31;;;;;;;6.55;5.28;;;10.80;99.90;;;;;;5036455;28;20539;-75
2021/05/01 01:21:00;;;;;;;8.23;5.72;;;10.80;99.90;;;;;;5036211;28;20029;-76
2021/05/01 01:23:29;;;;;;;6.70;5.88;;;10.80;99.90;;;;;;5036276;28;20124;-75
2021/05/01 01:25:55;;;;;;;8.05;6.10;;;10.70;99.90;;;;;;5036431;28;20034;-75
2021/05/01 01:28:21;;;;;;;7.03;5.65;;;10.70;99.90;;;;;;5036424;28;20036;-75
2021/05/01 01:30:47;;;;;;;6.75;5.85;;;10.80;99.90;;;;;;5036293;28;20048;-75
2021/05/01 01:33:13;;;;;;;5.97;5.45;;;10.60;99.90;;;;;;5036257;28;20045;-75
2021/05/01 01:35:39;;;;;;;9.15;5.65;;;10.60;99.90;;;;;;5036247;28;20049;-75
2021/05/01 01:38:06;;;;;;;6.60;6.00;;;10.60;99.90;;;;;;5036403;28;20041;-75
2021/05/01 01:40:33;;;;;;;8.73;5.57;;;10.60;99.90;;;;;;5036515;28;20045;-75
2021/05/01 01:42:59;;;;;;;7.03;6.28;;;10.60;99.90;;;;;;5036178;28;20514;-75
2021/05/01 01:45:29;;;;;;;7.75;6.32;;;10.60;99.90;;;;;;5035946;28;20128;-75
2021/05/01 01:47:56;;;;;;;6.05;5.45;;;10.50;99.90;;;;;;5035776;28;20128;-75
2021/05/01 01:50:23;;;;;;;10.20;6.45;;;10.60;99.90;;;;;;5035414;28;20041;-75
2021/05/01 01:52:49;;;;;;;5.90;5.40;;;10.50;99.90;;;;;;5035785;28;20052;-75
2021/05/01 01:55:17;;;;;;;6.25;5.07;;;10.50;99.90;;;;;;5035580;28;20084;-75
2021/05/01 01:57:44;;;;;;;5.80;5.05;;;10.60;99.90;;;;;;5035843;28;20037;-75
2021/05/01 02:00:18;;;;;;;4.90;4.40;;;10.60;99.90;;;;;;5036285;28;20531;-75
2021/05/01 02:02:44;;;;;;;5.15;4.25;;;10.60;99.90;;;;;;5035927;28;20037;-75
2021/05/01 02:05:11;;;;;;;10.52;4.50;;;10.50;99.90;;;;;;5035963;28;20033;-76
2021/05/01 02:07:37;;;;;;;6.38;4.75;;;10.40;99.90;;;;;;5035657;28;20559;-76
2021/05/01 02:10:05;;;;;;;4.93;4.53;;;10.50;99.90;;;;;;5035666;28;20049;-76
2021/05/01 02:12:33;;;;;;;4.60;4.20;;;10.50;99.90;;;;;;5035579;28;20060;-76
2021/05/01 02:14:59;;;;;;;5.03;4.18;;;10.50;99.90;;;;;;5034770;28;20046;-76
2021/05/01 02:17:25;;;;;;;4.97;4.57;;;10.50;99.90;;;;;;5034441;28;20041;-76
2021/05/01 02:19:51;;;;;;;4.40;4.00;;;10.50;99.90;;;;;;5036053;28;20048;-75
2021/05/01 02:22:16;;;;;;;4.85;4.45;;;10.40;99.90;;;;;;5035652;28;20124;-75
2021/05/01 02:24:43;;;;;;;4.90;4.40;;;10.40;99.90;;;;;;5034314;28;20052;-75
2021/05/01 02:27:09;;;;;;;5.40;4.65;;;10.40;99.90;;;;;;5035180;28;20065;-75
2021/05/01 02:29:35;;;;;;;4.97;4.47;;;10.30;99.90;;;;;;5034316;28;20134;-75
2021/05/01 02:32:01;;;;;;;5.18;4.18;;;10.40;99.90;;;;;;5035508;28;20037;-75
2021/05/01 02:34:26;;;;;;;4.60;4.18;;;10.20;99.90;;;;;;5035384;28;20041;-75
2021/05/01 02:36:52;;;;;;;6.53;3.55;;;10.30;99.90;;;;;;5035413;28;20045;-75
2021/05/01 02:39:18;;;;;;;4.10;3.60;;;10.30;99.90;;;;;;5035751;28;20465;-75
2021/05/01 02:41:44;;;;;;;5.53;3.88;;;10.10;99.90;;;;;;5035085;28;20121;-75
2021/05/01 02:44:09;;;;;;;4.57;3.45;;;10.20;99.90;;;;;;5035158;28;20037;-75
2021/05/01 02:46:35;;;;;;;3.45;3.20;;;10.20;99.90;;;;;;5035004;28;20049;-75
2021/05/01 02:49:01;;;;;;;4.22;3.83;;;10.20;99.90;;;;;;5035086;28;20038;-75
2021/05/01 02:51:27;;;;;;;4.05;3.60;;;10.20;99.90;;;;;;5035186;28;20046;-75
2021/05/01 02:53:53;;;;;;;4.20;3.80;;;10.20;99.90;;;;;;5035162;28;20049;-75
2021/05/01 02:56:18;;;;;;;4.22;3.25;;;10.20;99.90;;;;;;5034860;28;20391;-75
2021/05/01 02:58:44;;;;;;;3.85;3.55;;;10.20;99.90;;;;;;5034721;28;20037;-75
2021/05/01 03:01:10;;;;;;;4.15;3.03;;;10.20;99.90;;;;;;5035087;28;20346;-75
2021/05/01 03:03:36;;;;;;;3.17;2.83;;;10.20;99.90;;;;;;5035007;28;20077;-75
2021/05/01 03:06:02;;;;;;;3.42;3.13;;;10.20;99.90;;;;;;5034924;28;20559;-75
2021/05/01 03:08:27;;;;;;;3.63;3.33;;;10.10;99.90;;;;;;5035013;28;20037;-75
2021/05/01 03:10:53;;;;;;;3.45;3.15;;;10.10;99.90;;;;;;5035255;28;20495;-75
2021/05/01 03:13:19;;;;;;;3.92;3.50;;;10.10;99.90;;;;;;5034781;28;20052;-75
2021/05/01 03:15:45;;;;;;;2.70;2.50;;;10.10;99.90;;;;;;5034077;28;20092;-75
2021/05/01 03:18:10;;;;;;;3.20;3.00;;;10.00;99.90;;;;;;5034464;28;20033;-75
2021/05/01 03:20:36;;;;;;;3.42;3.13;;;10.10;99.90;;;;;;5034569;28;20082;-75
2021/05/01 03:23:06;;;;;;;3.70;3.00;;;10.10;99.90;;;;;;5034422;28;20044;-75
2021/05/01 03:25:32;;;;;;;2.65;2.42;;;10.00;99.90;;;;;;5034335;28;20075;-75
2021/05/01 03:27:58;;;;;;;2.53;2.30;;;10.00;99.90;;;;;;5034226;28;20567;-75
2021/05/01 03:30:24;;;;;;;2.92;2.58;;;10.00;99.90;;;;;;5034406;28;20042;-75
2021/05/01 03:32:49;;;;;;;2.85;2.55;;;10.10;99.90;;;;;;5034450;28;20057;-76
2021/05/01 03:35:15;;;;;;;4.32;2.50;;;10.10;99.90;;;;;;5034009;28;20052;-75
2021/05/01 03:37:42;;;;;;;3.08;2.25;;;10.10;99.90;;;;;;5033052;28;20045;-75
2021/05/01 03:40:09;;;;;;;4.40;2.28;;;10.00;99.90;;;;;;5034053;28;20037;-76
2021/05/01 03:42:36;;;;;;;2.60;2.40;;;10.10;99.90;;;;;;5034559;28;20065;-76
2021/05/01 03:45:03;;;;;;;3.22;2.25;;;10.20;99.90;;;;;;5034037;28;20045;-76
2021/05/01 03:47:29;;;;;;;2.70;2.50;;;10.10;99.90;;;;;;5034467;28;20050;-76
2021/05/01 03:49:56;;;;;;;2.55;2.35;;;10.00;99.90;;;;;;5034594;28;20037;-76
2021/05/01 03:52:21;;;;;;;2.65;2.25;;;10.10;99.90;;;;;;5034293;28;20042;-76
2021/05/01 03:54:47;;;;;;;2.50;2.30;;;10.10;99.90;;;;;;5034401;28;20062;-76
2021/05/01 03:57:13;;;;;;;1.80;1.70;;;10.10;99.90;;;;;;5033896;28;20373;-75
2021/05/01 03:59:39;;;;;;;1.85;1.75;;;10.20;99.90;;;;;;5033758;28;20420;-75
2021/05/01 04:02:05;;;;;;;2.85;1.98;;;10.10;99.90;;;;;;5034607;28;20135;-76
2021/05/01 04:04:31;;;;;;;2.20;2.00;;;10.10;99.90;;;;;;5032798;28;20053;-75
2021/05/01 04:06:57;;;;;;;1.80;1.70;;;10.20;99.90;;;;;;5034171;28;20037;-75
2021/05/01 04:09:23;;;;;;;2.17;1.77;;;10.10;99.90;;;;;;5049739;28;20042;-75
2021/05/01 04:11:49;;;;;;;2.30;1.77;;;10.10;99.90;;;;;;5033904;28;20033;-75
2021/05/01 04:14:15;;;;;;;2.42;1.70;;;10.10;99.90;;;;;;5033572;28;20054;-75
2021/05/01 04:16:40;;;;;;;1.77;1.67;;;10.20;99.90;;;;;;5034006;28;20049;-76
2021/05/01 04:19:06;;;;;;;3.35;1.88;;;10.20;99.90;;;;;;5034053;28;20033;-75
2021/05/01 04:21:32;;;;;;;2.10;2.00;;;10.10;99.90;;;;;;5033625;28;20080;-75
2021/05/01 04:23:58;;;;;;;2.10;1.90;;;10.10;99.90;;;;;;5033948;28;20039;-75
2021/05/01 04:26:24;;;;;;;2.42;1.88;;;10.10;99.90;;;;;;5034408;28;20045;-75
2021/05/01 04:28:52;;;;;;;3.15;1.60;;;10.20;99.90;;;;;;5034350;28;20428;-75
2021/05/01 04:31:18;;;;;;;2.15;1.92;;;10.20;99.90;;;;;;5033500;28;20037;-75
2021/05/01 04:33:44;;;;;;;3.03;1.85;;;10.20;99.90;;;;;;5033629;28;20076;-75
2021/05/01 04:36:10;;;;;;;3.13;2.08;;;10.20;99.90;;;;;;5033761;28;20508;-75
2021/05/01 04:38:36;;;;;;;2.25;1.92;;;10.20;99.90;;;;;;5034702;28;20179;-76
2021/05/01 04:41:01;;;;;;;3.05;2.40;;;10.20;99.90;;;;;;5037330;28;20501;-76
2021/05/01 04:43:27;;;;;;;2.95;2.63;;;10.20;99.90;;;;;;5036989;28;20492;-75
2021/05/01 04:45:54;;;;;;;3.97;2.60;;;10.10;99.90;;;;;;5037074;28;20038;-75
2021/05/01 04:48:21;;;;;;;2.67;2.47;;;10.20;99.90;;;;;;5037195;28;20493;-75
2021/05/01 04:50:53;;;;;;;2.15;2.05;;;10.20;99.90;;;;;;5035650;28;20041;-76
2021/05/01 04:53:19;;;;;;;2.65;2.15;;;10.20;99.90;;;;;;5036147;28;20041;-75
2021/05/01 04:55:45;;;;;;;2.08;1.98;;;10.20;99.90;;;;;;5036172;28;20091;-75
2021/05/01 04:58:11;;;;;;;2.50;2.30;;;10.20;99.90;;;;;;5036117;28;20037;-75
2021/05/01 05:00:37;;;;;;;2.22;2.03;;;10.20;99.90;;;;;;5036609;28;20038;-75
2021/05/01 05:03:03;;;;;;;1.85;1.75;;;10.20;99.90;;;;;;5036587;28;20045;-75
2021/05/01 05:05:29;;;;;;;2.55;2.35;;;10.20;99.90;;;;;;5034998;28;20052;-75
2021/05/01 05:07:55;;;;;;;2.20;2.03;;;10.10;99.90;;;;;;5034975;28;20045;-75
2021/05/01 05:10:21;;;;;;;2.75;2.55;;;10.20;99.90;;;;;;5033680;28;20452;-75
2021/05/01 05:12:48;;;;;;;5.57;2.50;;;10.20;99.90;;;;;;5035332;28;20124;-75
2021/05/01 05:15:14;;;;;;;3.85;2.15;;;10.20;99.90;;;;;;5035714;28;20073;-75
2021/05/01 05:17:40;;;;;;;1.70;1.60;;;10.20;99.90;;;;;;5034764;28;20052;-75
2021/05/01 05:20:07;;;;;;;2.80;1.98;;;10.20;99.90;;;;;;5035744;28;20038;-76
2021/05/01 05:22:33;;;;;;;1.88;1.77;;;10.30;99.90;;;;;;5036099;28;20041;-76
2021/05/01 05:24:59;;;;;;;4.22;2.50;;;10.20;99.90;;;;;;5036546;28;20052;-77
2021/05/01 05:27:26;;;;;;;3.85;2.38;;;10.20;99.90;;;;;;5036302;28;20065;-75
2021/05/01 05:29:52;;;;;;;2.40;2.20;;;10.10;99.90;;;;;;5036384;28;20091;-75
2021/05/01 05:32:19;;;;;;;4.63;2.13;;;10.00;99.90;;;;;;5036391;28;20042;-75
2021/05/01 05:34:46;;;;;;;3.38;2.17;;;10.00;99.90;;;;;;5036320;28;20042;-75
2021/05/01 05:37:12;;;;;;;3.58;2.40;;;10.00;99.90;;;;;;5036294;28;20048;-75
2021/05/01 05:39:39;;;;;;;2.45;2.22;;;10.00;99.90;;;;;;5036875;28;20041;-75
2021/05/01 05:42:07;;;;;;;4.03;2.53;;;10.00;99.90;;;;;;5036028;28;20037;-75
2021/05/01 05:44:33;;;;;;;2.53;2.33;;;10.00;99.90;;;;;;5036160;28;20099;-75
2021/05/01 05:46:59;;;;;;;2.88;2.10;;;10.00;99.90;;;;;;5035787;28;20037;-75
2021/05/01 05:49:25;;;;;;;3.50;2.40;;;10.00;99.90;;;;;;5036207;28;20443;-75
2021/05/01 05:51:51;;;;;;;4.03;2.20;;;9.90;99.90;;;;;;5036473;28;20413;-75
2021/05/01 05:54:16;;;;;;;2.70;2.50;;;10.10;99.90;;;;;;5035915;28;20053;-75
2021/05/01 05:56:43;;;;;;;2.20;2.10;;;10.00;99.90;;;;;;5036307;28;20056;-76
2021/05/01 05:59:09;;;;;;;3.85;2.03;;;9.90;99.90;;;;;;5035846;28;20041;-76
2021/05/01 06:01:39;;;;;;;2.10;2.00;;;10.00;99.90;;;;;;5035783;28;20037;-76
2021/05/01 06:04:10;;;;;;;2.00;1.90;;;10.00;99.90;;;;;;5035745;28;20041;-76
2021/05/01 06:06:42;;;;;;;2.13;1.88;;;10.10;99.90;;;;;;5036252;28;20268;-76
2021/05/01 06:09:08;;;;;;;2.28;1.77;;;10.00;99.90;;;;;;5035426;28;20052;-76
2021/05/01 06:11:34;;;;;;;4.72;3.42;;;10.00;99.90;;;;;;5035523;28;20126;-77
2021/05/01 06:14:03;;;;;;;2.78;2.00;;;10.10;99.90;;;;;;5035323;28;20091;-76
2021/05/01 06:16:31;;;;;;;3.03;2.40;;;10.10;99.90;;;;;;5036128;28;20140;-77
2021/05/01 06:18:58;;;;;;;3.90;2.97;;;10.10;99.90;;;;;;5036028;28;20543;-76
2021/05/01 06:21:24;;;;;;;5.82;2.90;;;10.20;99.90;;;;;;5035421;28;20141;-76
2021/05/01 06:23:50;;;;;;;3.05;2.55;;;10.10;99.90;;;;;;5035659;28;20443;-76
2021/05/01 06:26:18;;;;;;;2.90;2.35;;;10.10;99.90;;;;;;5036123;28;20120;-76
2021/05/01 06:28:45;;;;;;;5.25;3.60;;;10.00;99.90;;;;;;5035447;28;20042;-76
2021/05/01 06:31:10;;;;;;;2.63;2.42;;;10.10;99.90;;;;;;5034228;28;20037;-76
2021/05/01 06:33:39;;;;;;;2.03;1.83;;;10.10;99.90;;;;;;5035071;28;20095;-76
2021/05/01 06:36:07;;;;;;;5.10;3.05;;;10.10;99.90;;;;;;5034928;28;20041;-76
2021/05/01 06:38:33;;;;;;;5.72;4.20;;;10.10;99.90;;;;;;5035341;28;20053;-76
2021/05/01 06:41:05;;;;;;;5.80;3.60;;;10.10;99.90;;;;;;5035609;28;20368;-76
2021/05/01 06:43:31;;;;;;;4.00;2.40;;;9.90;99.90;;;;;;5034698;28;20120;-76
2021/05/01 06:46:00;;;;;;;5.43;2.83;;;9.90;99.90;;;;;;5034773;28;20128;-76
2021/05/01 06:48:28;;;;;;;3.25;2.05;;;10.00;99.90;;;;;;5035111;28;20053;-76
2021/05/01 06:50:59;;;;;;;5.18;3.50;;;10.00;99.90;;;;;;5035941;28;20033;-76
2021/05/01 06:53:29;;;;;;;;;;;10.20;99.90;;;;;;5035602;28;20037;-76
2021/05/01 06:56:05;;;;;;;3.40;2.03;;;10.10;99.90;;;;;;5035001;28;19917;-76
2021/05/01 06:58:32;;;;;;;2.40;2.20;;;10.20;99.90;;;;;;5034930;28;20046;-76
2021/05/01 07:01:04;;;;;;;19.58;11.52;;;10.30;99.90;;;;;;5034550;28;20033;-76
2021/05/01 07:03:33;;;;;;;7.20;5.00;;;10.30;99.90;;;;;;5035111;28;20037;-76
2021/05/01 07:06:01;;;;;;;4.10;2.85;;;10.30;99.90;;;;;;5034704;28;20045;-76
2021/05/01 07:08:28;;;;;;;1.73;1.50;;;10.30;99.90;;;;;;5034647;28;20518;-76
2021/05/01 07:10:54;;;;;;;3.88;3.15;;;10.30;99.90;;;;;;5035266;28;20033;-76
2021/05/01 07:13:20;;;;;;;1.42;1.33;;;10.40;99.90;;;;;;5034666;28;20044;-77
2021/05/01 07:15:46;;;;;;;1.45;1.35;;;10.40;99.90;;;;;;5034152;28;20060;-76
2021/05/01 07:18:14;;;;;;;1.67;1.58;;;10.40;99.90;;;;;;5034548;28;20053;-77
2021/05/01 07:20:40;;;;;;;1.30;1.20;;;10.50;99.90;;;;;;5034865;28;20064;-76
2021/05/01 07:23:06;;;;;;;4.70;3.08;;;10.50;99.90;;;;;;5034226;28;20527;-76
2021/05/01 07:25:32;;;;;;;15.07;8.93;;;10.50;99.90;;;;;;5034447;28;20049;-76
2021/05/01 07:28:05;;;;;;;7.50;4.82;;;10.60;99.90;;;;;;5034653;28;20392;-76
2021/05/01 07:30:37;;;;;;;6.30;3.22;;;10.70;99.90;;;;;;5034374;28;20038;-76
2021/05/01 07:33:16;;;;;;;2.80;1.52;;;10.60;99.90;;;;;;5034169;28;20068;-76
2021/05/01 07:35:46;;;;;;;1.20;0.90;;;10.70;99.90;;;;;;5034307;28;20051;-77
2021/05/01 07:38:12;;;;;;;3.95;1.80;;;10.60;99.90;;;;;;5027652;28;20041;-76
2021/05/01 07:40:39;;;;;;;6.88;1.77;;;10.70;99.90;;;;;;5014144;28;20040;-76
2021/05/01 07:43:07;;;;;;;1.42;1.00;;;10.70;99.90;;;;;;5014631;28;20136;-76
2021/05/01 07:45:36;;;;;;;2.58;1.50;;;10.60;99.90;;;;;;5014121;28;20038;-76
2021/05/01 07:48:03;;;;;;;2.95;1.70;;;10.70;99.90;;;;;;5013241;28;20041;-76
2021/05/01 07:50:32;;;;;;;1.90;1.67;;;10.70;99.90;;;;;;5014824;28;20042;-76
2021/05/01 07:52:58;;;;;;;2.33;1.30;;;10.70;99.90;;;;;;5014434;28;20038;-76
2021/05/01 07:55:24;;;;;;;1.35;1.25;;;10.80;99.90;;;;;;5014046;28;20042;-76
2021/05/01 07:57:50;;;;;;;2.42;1.00;;;10.90;99.90;;;;;;5014607;28;20038;-76
2021/05/01 08:00:18;;;;;;;2.22;1.75;;;10.80;99.90;;;;;;5014173;28;20038;-77
2021/05/01 08:02:44;;;;;;;3.90;2.40;;;10.80;99.90;;;;;;5013232;28;20370;-76
2021/05/01 08:05:10;;;;;;;1.08;0.80;;;10.90;99.90;;;;;;5013303;28;20048;-76
2021/05/01 08:07:37;;;;;;;2.25;0.90;;;10.90;99.90;;;;;;5014322;28;20037;-76
2021/05/01 08:10:05;;;;;;;1.85;1.00;;;10.80;99.90;;;;;;5012787;28;20501;-76
2021/05/01 08:12:31;;;;;;;1.90;1.35;;;10.90;99.90;;;;;;5013911;28;20033;-76
2021/05/01 08:14:56;;;;;;;0.95;0.93;;;10.80;99.90;;;;;;5016667;28;20409;-77
2021/05/01 08:17:22;;;;;;;1.92;1.30;;;10.80;99.90;;;;;;5017674;28;20042;-76
2021/05/01 08:19:52;;;;;;;2.63;1.35;;;10.70;99.90;;;;;;5017987;28;20030;-76
2021/05/01 08:22:18;;;;;;;1.65;1.25;;;10.80;99.90;;;;;;5017767;28;20069;-76
2021/05/01 08:24:44;;;;;;;4.10;3.00;;;10.70;99.90;;;;;;5016267;28;20050;-77
2021/05/01 08:27:10;;;;;;;6.32;4.30;;;10.80;99.90;;;;;;5017571;28;20067;-76
2021/05/01 08:29:35;;;;;;;1.60;1.40;;;10.80;99.90;;;;;;5017995;28;20042;-76
2021/05/01 08:32:01;;;;;;;2.65;2.13;;;10.70;99.90;;;;;;5017732;28;20033;-76
2021/05/01 08:34:27;;;;;;;1.38;1.27;;;10.70;99.90;;;;;;5016330;28;20073;-76
2021/05/01 08:36:53;;;;;;;2.22;1.98;;;10.70;99.90;;;;;;5017619;28;20034;-76
2021/05/01 08:39:19;;;;;;;2.53;2.15;;;10.60;99.90;;;;;;5017903;28;20045;-76
2021/05/01 08:41:45;;;;;;;3.63;2.80;;;10.60;99.90;;;;;;5017970;28;20044;-76
2021/05/01 08:44:11;;;;;;;1.30;1.10;;;10.60;99.90;;;;;;5031937;28;20497;-76
2021/05/01 08:46:38;;;;;;;2.30;1.77;;;10.50;99.90;;;;;;5036951;28;20130;-77
2021/05/01 08:49:06;;;;;;;1.50;1.30;;;10.60;99.90;;;;;;5037511;28;20034;-76
2021/05/01 08:51:32;;;;;;;1.40;1.30;;;10.50;99.90;;;;;;5037112;28;20041;-77
2021/05/01 08:53:58;;;;;;;1.70;1.35;;;10.40;99.90;;;;;;5052427;28;20061;-77
2021/05/01 08:56:24;;;;;;;1.05;1.05;;;10.40;99.90;;;;;;5036683;28;20382;-77
2021/05/01 08:58:54;;;;;;;2.22;1.27;;;10.40;99.90;;;;;;5036643;28;20559;-77
2021/05/01 09:01:23;;;;;;;2.53;1.42;;;10.60;99.90;;;;;;5036989;28;20025;-77
2021/05/01 09:03:52;;;;;;;0.80;0.80;;;10.60;99.90;;;;;;5036958;28;20087;-77
2021/05/01 09:06:24;;;;;;;4.38;1.17;;;10.60;99.90;;;;;;5037263;28;20555;-76
2021/05/01 09:09:05;;;;;;;2.10;1.30;;;10.80;99.90;;;;;;5036909;28;20037;-77
2021/05/01 09:11:42;;;;;;;1.42;1.33;;;10.80;99.90;;;;;;5037420;28;20026;-77
2021/05/01 09:14:22;;;;;;;2.15;1.40;;;10.60;99.90;;;;;;5034995;28;20080;-76
2021/05/01 09:17:06;;;;;;;1.27;1.08;;;10.70;99.90;;;;;;5037139;28;20045;-77
2021/05/01 09:19:40;;;;;;;3.63;2.83;;;10.90;99.90;;;;;;5037530;28;20044;-76
2021/05/01 09:22:13;;;;;;;1.88;1.30;;;11.00;99.90;;;;;;5036878;28;20026;-76
2021/05/01 09:25:09;;;;;;;0.90;0.90;;;11.10;99.90;;;;;;5036986;28;20065;-76
2021/05/01 09:28:15;;;;;;;;;;;;;;;;;;;;;
2021/05/01 09:31:03;;;;;;;0.70;0.70;;;11.70;99.90;;;;;;5036333;28;20039;-76
2021/05/01 09:33:37;;;;;;;2.80;1.92;;;11.60;99.90;;;;;;5035338;28;20042;-77
2021/05/01 09:36:17;;;;;;;0.90;0.68;;;11.70;99.90;;;;;;5036556;28;20041;-77
2021/05/01 09:38:47;;;;;;;1.45;1.35;;;11.30;99.90;;;;;;5036345;28;20045;-77
2021/05/01 09:41:25;;;;;;;2.00;1.80;;;11.50;99.90;;;;;;5036208;28;20124;-76
2021/05/01 09:44:02;;;;;;;0.88;0.80;;;11.40;99.90;;;;;;5036326;28;20120;-76
2021/05/01 09:46:38;;;;;;;1.30;1.20;;;11.20;99.90;;;;;;5035743;28;20125;-76
2021/05/01 09:49:13;;;;;;;3.85;1.80;;;11.00;99.90;;;;;;5036126;28;20037;-75
2021/05/01 09:51:48;;;;;;;0.98;0.60;;;10.90;99.90;;;;;;5036071;28;20033;-75
2021/05/01 09:54:19;;;;;;;7.30;1.50;;;10.80;99.90;;;;;;5035934;28;20033;-75
2021/05/01 09:56:46;;;;;;;3.15;1.67;;;10.80;99.90;;;;;;5034703;28;20118;-75
2021/05/01 09:59:13;;;;;;;1.00;0.80;;;10.70;99.90;;;;;;5035335;28;20133;-75
2021/05/01 10:01:40;;;;;;;1.40;1.30;;;10.60;99.90;;;;;;5035720;28;20050;-76
2021/05/01 10:04:18;;;;;;;2.97;0.90;;;10.70;99.90;;;;;;5035316;28;20041;-76
2021/05/01 10:06:51;;;;;;;1.25;0.95;;;10.70;99.90;;;;;;5035612;28;20504;-76
2021/05/01 10:09:54;;;;;;;1.50;1.40;;;10.90;99.90;;;;;;5051089;28;20069;-77
2021/05/01 10:12:21;;;;;;;4.65;1.30;;;11.00;99.90;;;;;;5028408;28;20037;-77
2021/05/01 10:14:49;;;;;;;1.98;1.63;;;11.00;99.90;;;;;;5034920;28;20049;-76
2021/05/01 10:17:24;;;;;;;1.60;1.40;;;10.90;99.90;;;;;;5050525;28;20041;-77
2021/05/01 10:19:51;;;;;;;1.42;1.33;;;10.90;99.90;;;;;;5050618;28;20111;-77
2021/05/01 10:22:31;;;;;;;8.23;5.70;;;10.80;99.90;;;;;;5034932;28;20083;-76
2021/05/01 10:25:04;;;;;;;5.27;3.10;;;10.90;99.90;;;;;;5041738;28;20053;-77
2021/05/01 10:31:19;;;;;;;1.60;1.50;;;11.10;99.90;;;;;;5026259;28;20056;-76
2021/05/01 10:33:48;;;;;;;2.47;1.73;;;11.10;99.90;;;;;;5031393;28;20041;-76
2021/05/01 10:36:27;;;;;;;2.97;2.45;;;11.20;99.90;;;;;;5031376;28;20539;-77
2021/05/01 10:39:28;;;;;;;2.35;1.80;;;11.30;99.90;;;;;;5032369;28;20093;-76
2021/05/01 10:41:56;;;;;;;1.48;1.30;;;11.30;99.90;;;;;;5021184;28;20060;-77
2021/05/01 10:44:23;;;;;;;2.75;2.03;;;11.40;99.90;;;;;;5032665;28;20045;-76
2021/05/01 10:46:49;;;;;;;1.55;1.45;;;11.40;99.90;;;;;;5034180;28;20049;-77
2021/05/01 10:49:15;;;;;;;3.15;1.70;;;11.50;99.90;;;;;;5034082;28;20068;-77
2021/05/01 10:51:43;;;;;;;4.60;1.33;;;11.30;99.90;;;;;;5034269;28;20069;-77
2021/05/01 10:54:20;;;;;;;1.73;1.40;;;11.30;99.90;;;;;;5034056;28;20037;-76
2021/05/01 10:56:51;;;;;;;1.83;1.30;;;11.00;99.90;;;;;;5033211;28;20045;-75
2021/05/01 10:59:21;;;;;;;8.32;4.72;;;11.20;99.90;;;;;;5033039;28;20120;-77
2021/05/01 11:01:49;;;;;;;4.60;2.00;;;11.20;99.90;;;;;;5025471;28;20071;-76
2021/05/01 11:04:26;;;;;;;0.95;0.95;;;11.40;99.90;;;;;;5033594;28;20064;-77
2021/05/01 11:07:08;;;;;;;4.05;1.92;;;11.30;99.90;;;;;;5033211;28;20044;-77
2021/05/01 11:09:48;;;;;;;0.98;0.90;;;11.60;99.90;;;;;;5034631;28;20046;-77
2021/05/01 11:12:18;;;;;;;1.95;1.75;;;11.60;99.90;;;;;;5032685;28;20041;-77
2021/05/01 11:14:49;;;;;;;2.10;1.10;;;11.60;99.90;;;;;;5032718;28;20132;-77
2021/05/01 11:17:30;;;;;;;1.95;1.42;;;11.60;99.90;;;;;;5035027;28;20042;-76
2021/05/01 11:20:08;;;;;;;0.90;0.88;;;11.60;99.90;;;;;;5034869;28;20049;-76
2021/05/01 11:22:36;;;;;;;0.80;0.80;;;11.60;99.90;;;;;;5033955;28;20029;-77
2021/05/01 11:25:09;;;;;;;0.63;0.63;;;11.50;99.90;;;;;;5025287;28;20550;-75
2021/05/01 11:27:36;;;;;;;0.85;0.60;;;11.70;99.90;;;;;;5013115;28;20049;-76
2021/05/01 11:30:03;;;;;;;1.20;0.98;;;12.10;99.90;;;;;;5030854;28;20526;-76
2021/05/01 11:32:30;;;;;;;1.20;0.95;;;12.10;99.90;;;;;;5027590;28;20064;-76
2021/05/01 11:35:09;;;;;;;1.45;1.17;;;12.40;99.90;;;;;;5028136;28;20045;-76
2021/05/01 11:37:45;;;;;;;0.73;0.73;;;12.70;99.90;;;;;;5031427;28;20034;-76
2021/05/01 11:40:19;;;;;;;1.85;0.80;;;12.50;99.90;;;;;;5029578;28;20049;-75
2021/05/01 11:42:57;;;;;;;1.10;1.00;;;12.70;99.90;;;;;;5030957;28;20045;-74
2021/05/01 11:45:47;;;;;;;1.02;0.70;;;12.80;99.90;;;;;;5030398;28;20517;-74
2021/05/01 11:48:45;;;;;;;1.55;0.70;;;12.80;99.90;;;;;;5033321;28;20038;-75
2021/05/01 11:51:18;;;;;;;0.60;0.60;;;12.80;99.90;;;;;;5034917;28;20056;-75
2021/05/01 11:53:51;;;;;;;4.30;1.80;;;12.60;99.90;;;;;;5035783;28;20048;-77
2021/05/01 11:56:33;;;;;;;3.42;2.70;;;12.50;99.90;;;;;;5036524;28;20120;-75
2021/05/01 11:59:15;;;;;;;1.17;1.08;;;12.70;99.90;;;;;;5034085;28;20098;-75
2021/05/01 12:02:00;;;;;;;2.42;1.83;;;12.60;99.90;;;;;;5035726;28;20171;-76
2021/05/01 12:05:05;;;;;;;3.13;2.30;;;12.40;99.90;;;;;;5033040;28;20034;-75
2021/05/01 12:07:36;;;;;;;1.15;1.00;;;12.50;99.90;;;;;;5034640;28;20041;-75
2021/05/01 12:10:13;;;;;;;1.25;1.00;;;12.50;99.90;;;;;;5034482;28;20591;-75
2021/05/01 12:12:59;;;;;;;1.60;1.45;;;12.20;99.90;;;;;;5034376;28;20075;-76
2021/05/01 12:15:48;;;;;;;1.80;1.70;;;12.50;99.90;;;;;;5031062;28;20045;-76
2021/05/01 12:18:14;;;;;;;1.75;1.63;;;12.10;99.90;;;;;;5034805;28;20153;-75
2021/05/01 12:20:47;;;;;;;1.23;1.13;;;12.30;99.90;;;;;;5035638;28;20052;-76
2021/05/01 12:23:45;;;;;;;1.58;1.30;;;12.30;99.90;;;;;;5035042;28;20072;-76
2021/05/01 12:26:33;;;;;;;0.82;0.82;;;12.00;99.90;;;;;;5033344;28;20045;-76
2021/05/01 12:29:18;;;;;;;3.35;2.63;;;12.00;99.90;;;;;;5032607;28;20033;-77
2021/05/01 12:32:01;;;;;;;1.20;1.10;;;11.70;99.90;;;;;;5047528;28;20033;-76
2021/05/01 12:34:56;;;;;;;3.85;2.33;;;11.60;99.90;;;;;;5028393;28;20037;-76
2021/05/01 12:37:25;;;;;;;4.50;2.10;;;11.60;99.90;;;;;;5031372;28;20077;-76
2021/05/01 12:39:51;;;;;;;3.50;0.90;;;11.50;99.90;;;;;;5022069;28;20659;-75
2021/05/01 12:42:31;;;;;;;3.28;1.67;;;11.50;99.90;;;;;;5033273;28;20053;-75
2021/05/01 12:44:58;;;;;;;0.98;0.75;;;12.10;99.90;;;;;;5033835;28;20041;-76
2021/05/01 12:47:36;;;;;;;1.58;1.13;;;12.30;99.90;;;;;;5035140;28;20091;-78
2021/05/01 12:50:25;;;;;;;1.90;1.00;;;12.40;99.90;;;;;;5034597;28;20037;-78
2021/05/01 12:52:52;;;;;;;4.10;1.27;;;12.30;99.90;;;;;;5035435;28;20077;-78
2021/05/01 12:55:19;;;;;;;1.10;1.00;;;12.20;99.90;;;;;;5032318;28;20045;-78
2021/05/01 12:57:47;;;;;;;1.25;1.15;;;11.90;99.90;;;;;;5034321;28;20029;-77
2021/05/01 13:00:29;;;;;;;1.25;0.93;;;11.60;99.90;;;;;;5034702;28;20052;-78
2021/05/01 13:03:04;;;;;;;1.50;1.08;;;11.40;99.90;;;;;;5035878;28;20045;-77